sensor_id;sensor_type;location;lat;lon;timestamp;pressure;altitude;pressure_sealevel;temperature;humidity
2549;BME280;1284;53.520;10.248;2023-04-15T00:00:30;100226.09;;;11.42;89.78
2549;BME280;1284;53.520;10.248;2023-04-15T00:02:55;100217.19;;;11.38;89.85
2549;BME280;1284;53.520;10.248;2023-04-15T00:05:21;100218.25;;;11.30;90.31
2549;BME280;1284;53.520;10.248;2023-04-15T00:07:46;100207.53;;;11.37;90.21
2549;BME280;1284;53.520;10.248;2023-04-15T00:10:12;100215.38;;;11.49;90.66
2549;BME280;1284;53.520;10.248;2023-04-15T00:12:39;100207.63;;;11.44;90.68
2549;BME280;1284;53.520;10.248;2023-04-15T00:15:06;100201.44;;;11.43;90.40
2549;BME280;1284;53.520;10.248;2023-04-15T00:17:33;100199.81;;;11.32;90.52
2549;BME280;1284;53.520;10.248;2023-04-15T00:19:59;100201.31;;;11.29;91.17
2549;BME280;1284;53.520;10.248;2023-04-15T00:22:26;100200.94;;;11.31;91.61
2549;BME280;1284;53.520;10.248;2023-04-15T00:24:54;100203.66;;;11.34;91.45
2549;BME280;1284;53.520;10.248;2023-04-15T00:27:19;100202.56;;;11.39;91.65
2549;BME280;1284;53.520;10.248;2023-04-15T00:29:45;100201.44;;;11.43;91.41
2549;BME280;1284;53.520;10.248;2023-04-15T00:32:11;100202.97;;;11.41;91.32
2549;BME280;1284;53.520;10.248;2023-04-15T00:34:39;100202.97;;;11.41;91.04
2549;BME280;1284;53.520;10.248;2023-04-15T00:37:06;100204.84;;;11.37;91.78
2549;BME280;1284;53.520;10.248;2023-04-15T00:39:31;100193.34;;;11.40;91.20
2549;BME280;1284;53.520;10.248;2023-04-15T00:41:57;100191.41;;;11.40;91.70
2549;BME280;1284;53.520;10.248;2023-04-15T00:44:23;100197.97;;;11.43;91.84
2549;BME280;1284;53.520;10.248;2023-04-15T00:46:50;100204.06;;;11.36;92.16
2549;BME280;1284;53.520;10.248;2023-04-15T00:49:16;100203.75;;;11.41;91.95
2549;BME280;1284;53.520;10.248;2023-04-15T00:51:44;100195.63;;;11.38;91.80
2549;BME280;1284;53.520;10.248;2023-04-15T00:54:10;100207.91;;;11.35;91.88
2549;BME280;1284;53.520;10.248;2023-04-15T00:56:36;100199.84;;;11.39;92.11
2549;BME280;1284;53.520;10.248;2023-04-15T00:59:06;100192.59;;;11.43;91.85
2549;BME280;1284;53.520;10.248;2023-04-15T01:01:34;100195.28;;;11.43;91.92
2549;BME280;1284;53.520;10.248;2023-04-15T01:04:00;100190.63;;;11.40;92.06
2549;BME280;1284;53.520;10.248;2023-04-15T01:06:25;100194.19;;;11.47;91.97
2549;BME280;1284;53.520;10.248;2023-04-15T01:08:56;100193.84;;;11.56;91.40
2549;BME280;1284;53.520;10.248;2023-04-15T01:11:22;100190.28;;;11.45;92.02
2549;BME280;1284;53.520;10.248;2023-04-15T01:13:52;100186.44;;;11.46;92.21
2549;BME280;1284;53.520;10.248;2023-04-15T01:16:19;100182.19;;;11.41;92.66
2549;BME280;1284;53.520;10.248;2023-04-15T01:18:45;100175.97;;;11.37;92.75
2549;BME280;1284;53.520;10.248;2023-04-15T01:21:11;100171.81;;;11.47;92.39
2549;BME280;1284;53.520;10.248;2023-04-15T01:23:37;100176.00;;;11.41;92.73
2549;BME280;1284;53.520;10.248;2023-04-15T01:26:05;100172.88;;;11.35;92.87
2549;BME280;1284;53.520;10.248;2023-04-15T01:28:32;100172.84;;;11.32;93.26
2549;BME280;1284;53.520;10.248;2023-04-15T01:31:11;100172.88;;;11.35;93.41
2549;BME280;1284;53.520;10.248;2023-04-15T01:33:39;100164.03;;;11.38;92.80
2549;BME280;1284;53.520;10.248;2023-04-15T01:36:06;100161.28;;;11.31;93.25
2549;BME280;1284;53.520;10.248;2023-04-15T01:38:32;100165.88;;;11.31;93.68
2549;BME280;1284;53.520;10.248;2023-04-15T01:40:58;100162.47;;;11.34;93.51
2549;BME280;1284;53.520;10.248;2023-04-15T01:43:25;100165.53;;;11.32;93.60
2549;BME280;1284;53.520;10.248;2023-04-15T01:48:16;100165.59;;;11.39;93.06
2549;BME280;1284;53.520;10.248;2023-04-15T01:50:42;100161.31;;;11.35;93.83
2549;BME280;1284;53.520;10.248;2023-04-15T01:53:08;100157.47;;;11.32;94.49
2549;BME280;1284;53.520;10.248;2023-04-15T01:55:34;100159.78;;;11.34;94.10
2549;BME280;1284;53.520;10.248;2023-04-15T01:57:59;100160.19;;;11.36;93.65
2549;BME280;1284;53.520;10.248;2023-04-15T02:00:25;100155.91;;;11.35;93.83
2549;BME280;1284;53.520;10.248;2023-04-15T02:02:51;100153.63;;;11.37;93.79
2549;BME280;1284;53.520;10.248;2023-04-15T02:05:17;100151.31;;;11.35;94.49
2549;BME280;1284;53.520;10.248;2023-04-15T02:07:46;100150.59;;;11.42;94.06
2549;BME280;1284;53.520;10.248;2023-04-15T02:10:12;100135.56;;;11.41;93.88
2549;BME280;1284;53.520;10.248;2023-04-15T02:12:38;100147.09;;;11.38;93.78
2549;BME280;1284;53.520;10.248;2023-04-15T02:15:05;100137.13;;;11.42;93.97
2549;BME280;1284;53.520;10.248;2023-04-15T02:17:35;100143.22;;;11.35;94.78
2549;BME280;1284;53.520;10.248;2023-04-15T02:20:02;100134.38;;;11.38;94.71
2549;BME280;1284;53.520;10.248;2023-04-15T02:22:30;100134.34;;;11.35;94.92
2549;BME280;1284;53.520;10.248;2023-04-15T02:24:56;100137.81;;;11.35;94.84
2549;BME280;1284;53.520;10.248;2023-04-15T02:27:21;100134.38;;;11.38;94.50
2549;BME280;1284;53.520;10.248;2023-04-15T02:29:48;100138.19;;;11.30;95.24
2549;BME280;1284;53.520;10.248;2023-04-15T02:32:17;100147.41;;;11.29;95.18
2549;BME280;1284;53.520;10.248;2023-04-15T02:34:43;100144.31;;;11.31;94.70
2549;BME280;1284;53.520;10.248;2023-04-15T02:37:12;100143.16;;;11.28;95.60
2549;BME280;1284;53.520;10.248;2023-04-15T02:39:38;100149.00;;;11.34;95.09
2549;BME280;1284;53.520;10.248;2023-04-15T02:42:03;100152.06;;;11.32;95.17
2549;BME280;1284;53.520;10.248;2023-04-15T02:44:31;100142.06;;;11.36;95.01
2549;BME280;1284;53.520;10.248;2023-04-15T02:46:59;100141.28;;;11.32;95.45
2549;BME280;1284;53.520;10.248;2023-04-15T02:49:25;100142.03;;;11.33;95.44
2549;BME280;1284;53.520;10.248;2023-04-15T02:51:50;100149.00;;;11.34;95.50
2549;BME280;1284;53.520;10.248;2023-04-15T02:54:21;100137.78;;;11.28;95.77
2549;BME280;1284;53.520;10.248;2023-04-15T02:59:34;100145.16;;;11.38;95.92
2549;BME280;1284;53.520;10.248;2023-04-15T03:02:00;100138.63;;;11.39;95.14
2549;BME280;1284;53.520;10.248;2023-04-15T03:04:26;100145.09;;;11.31;95.88
2549;BME280;1284;53.520;10.248;2023-04-15T03:06:54;100139.75;;;11.35;95.78
2549;BME280;1284;53.520;10.248;2023-04-15T03:09:21;100152.44;;;11.34;96.08
2549;BME280;1284;53.520;10.248;2023-04-15T03:11:46;100144.34;;;11.34;96.52
2549;BME280;1284;53.520;10.248;2023-04-15T03:14:12;100144.00;;;11.36;96.71
2549;BME280;1284;53.520;10.248;2023-04-15T03:16:41;100142.41;;;11.31;96.03
2549;BME280;1284;53.520;10.248;2023-04-15T03:19:06;100136.22;;;11.27;96.68
2549;BME280;1284;53.520;10.248;2023-04-15T03:21:33;100139.69;;;11.28;96.74
2549;BME280;1284;53.520;10.248;2023-04-15T03:23:58;100133.53;;;11.31;96.56
2549;BME280;1284;53.520;10.248;2023-04-15T03:26:30;100137.81;;;11.35;95.83
2549;BME280;1284;53.520;10.248;2023-04-15T03:29:08;100136.97;;;11.24;96.28
2549;BME280;1284;53.520;10.248;2023-04-15T03:31:34;100135.81;;;11.25;97.08
2549;BME280;1284;53.520;10.248;2023-04-15T03:33:59;100128.13;;;11.27;96.86
2549;BME280;1284;53.520;10.248;2023-04-15T03:36:29;100137.00;;;11.28;96.78
2549;BME280;1284;53.520;10.248;2023-04-15T03:38:57;100125.44;;;11.27;97.03
2549;BME280;1284;53.520;10.248;2023-04-15T03:41:23;100124.69;;;11.30;96.95
2549;BME280;1284;53.520;10.248;2023-04-15T03:43:48;100123.13;;;11.26;97.06
2549;BME280;1284;53.520;10.248;2023-04-15T03:46:16;100129.69;;;11.28;97.58
2549;BME280;1284;53.520;10.248;2023-04-15T03:48:42;100137.81;;;11.32;97.52
2549;BME280;1284;53.520;10.248;2023-04-15T03:51:07;100140.16;;;11.37;96.84
2549;BME280;1284;53.520;10.248;2023-04-15T03:53:33;100135.53;;;11.37;97.14
2549;BME280;1284;53.520;10.248;2023-04-15T03:55:58;100136.72;;;11.40;96.46
2549;BME280;1284;53.520;10.248;2023-04-15T03:58:24;100144.72;;;11.33;96.72
2549;BME280;1284;53.520;10.248;2023-04-15T04:00:49;100148.19;;;11.30;97.55
2549;BME280;1284;53.520;10.248;2023-04-15T04:03:15;100148.22;;;11.33;97.37
2549;BME280;1284;53.520;10.248;2023-04-15T04:05:41;100148.59;;;11.35;96.98
2549;BME280;1284;53.520;10.248;2023-04-15T04:08:08;100155.47;;;11.26;97.64
2549;BME280;1284;53.520;10.248;2023-04-15T04:10:33;100143.16;;;11.28;97.62
2549;BME280;1284;53.520;10.248;2023-04-15T04:12:59;100150.44;;;11.24;97.71
2549;BME280;1284;53.520;10.248;2023-04-15T04:15:25;100143.56;;;11.30;97.48
2549;BME280;1284;53.520;10.248;2023-04-15T04:17:51;100137.03;;;11.31;98.02
2549;BME280;1284;53.520;10.248;2023-04-15T04:20:16;100139.25;;;11.22;97.93
2549;BME280;1284;53.520;10.248;2023-04-15T04:22:42;100134.22;;;11.21;98.13
2549;BME280;1284;53.520;10.248;2023-04-15T04:25:08;100144.28;;;11.24;98.68
2549;BME280;1284;53.520;10.248;2023-04-15T04:27:37;100138.88;;;11.24;98.60
2549;BME280;1284;53.520;10.248;2023-04-15T04:30:03;100135.81;;;11.25;98.04
2549;BME280;1284;53.520;10.248;2023-04-15T04:32:29;100134.63;;;11.23;98.44
2549;BME280;1284;53.520;10.248;2023-04-15T04:34:54;100131.94;;;11.23;98.04
2549;BME280;1284;53.520;10.248;2023-04-15T04:37:20;100137.00;;;11.28;98.19
2549;BME280;1284;53.520;10.248;2023-04-15T04:39:45;100135.38;;;11.20;98.17
2549;BME280;1284;53.520;10.248;2023-04-15T04:42:11;100139.22;;;11.19;98.03
2549;BME280;1284;53.520;10.248;2023-04-15T04:44:36;100144.44;;;11.01;99.56
2549;BME280;1284;53.520;10.248;2023-04-15T04:47:02;100143.34;;;11.09;99.73
2549;BME280;1284;53.520;10.248;2023-04-15T04:49:27;100143.44;;;11.16;99.01
2549;BME280;1284;53.520;10.248;2023-04-15T04:51:53;100142.31;;;11.21;99.80
2549;BME280;1284;53.520;10.248;2023-04-15T04:54:18;100142.03;;;11.33;98.93
2549;BME280;1284;53.520;10.248;2023-04-15T04:56:44;100152.78;;;11.29;99.21
2549;BME280;1284;53.520;10.248;2023-04-15T04:59:09;100149.63;;;11.20;99.70
2549;BME280;1284;53.520;10.248;2023-04-15T05:01:35;100149.63;;;11.20;99.46
2549;BME280;1284;53.520;10.248;2023-04-15T05:04:00;100147.22;;;11.12;100.00
2549;BME280;1284;53.520;10.248;2023-04-15T05:06:26;100150.38;;;11.21;99.75
2549;BME280;1284;53.520;10.248;2023-04-15T05:08:52;100152.31;;;11.17;100.00
2549;BME280;1284;53.520;10.248;2023-04-15T05:11:17;100147.75;;;11.24;100.00
2549;BME280;1284;53.520;10.248;2023-04-15T05:13:43;100153.94;;;11.28;99.77
2549;BME280;1284;53.520;10.248;2023-04-15T05:16:08;100151.69;;;11.34;99.82
2549;BME280;1284;53.520;10.248;2023-04-15T05:18:33;100150.94;;;11.37;99.87
2549;BME280;1284;53.520;10.248;2023-04-15T05:20:59;100145.91;;;11.35;100.00
2549;BME280;1284;53.520;10.248;2023-04-15T05:23:24;100150.53;;;11.35;100.00
2549;BME280;1284;53.520;10.248;2023-04-15T05:25:50;100142.47;;;11.38;99.42
2549;BME280;1284;53.520;10.248;2023-04-15T05:28:15;100148.22;;;11.37;99.62
2549;BME280;1284;53.520;10.248;2023-04-15T05:30:41;100150.16;;;11.36;100.00
2549;BME280;1284;53.520;10.248;2023-04-15T05:33:07;100159.78;;;11.37;99.79
2549;BME280;1284;53.520;10.248;2023-04-15T05:35:33;100149.75;;;11.34;100.00
2549;BME280;1284;53.520;10.248;2023-04-15T05:37:58;100155.44;;;11.22;100.00
2549;BME280;1284;53.520;10.248;2023-04-15T05:40:24;100148.19;;;11.30;100.00
2549;BME280;1284;53.520;10.248;2023-04-15T05:42:49;100162.88;;;11.36;100.00
2549;BME280;1284;53.520;10.248;2023-04-15T05:45:15;100155.47;;;11.26;100.00
2549;BME280;1284;53.520;10.248;2023-04-15T05:47:40;100159.78;;;11.34;100.00
2549;BME280;1284;53.520;10.248;2023-04-15T05:50:06;100162.13;;;11.39;100.00
2549;BME280;1284;53.520;10.248;2023-04-15T05:52:32;100149.84;;;11.45;99.98
2549;BME280;1284;53.520;10.248;2023-04-15T05:54:57;100163.69;;;11.40;100.00
2549;BME280;1284;53.520;10.248;2023-04-15T05:57:23;100159.09;;;11.44;100.00
2549;BME280;1284;53.520;10.248;2023-04-15T05:59:48;100166.78;;;11.42;100.00
2549;BME280;1284;53.520;10.248;2023-04-15T06:02:16;100166.38;;;11.40;100.00
2549;BME280;1284;53.520;10.248;2023-04-15T06:04:41;100178.69;;;11.41;100.00
2549;BME280;1284;53.520;10.248;2023-04-15T06:07:08;100172.94;;;11.46;100.00
2549;BME280;1284;53.520;10.248;2023-04-15T06:09:33;100180.69;;;11.47;100.00
2549;BME280;1284;53.520;10.248;2023-04-15T06:11:59;100184.09;;;11.41;100.00
2549;BME280;1284;53.520;10.248;2023-04-15T06:14:25;100183.72;;;11.42;100.00
2549;BME280;1284;53.520;10.248;2023-04-15T06:16:51;100195.91;;;11.29;100.00
2549;BME280;1284;53.520;10.248;2023-04-15T06:19:16;100198.25;;;11.34;100.00
2549;BME280;1284;53.520;10.248;2023-04-15T06:21:43;100204.44;;;11.35;100.00
2549;BME280;1284;53.520;10.248;2023-04-15T06:24:08;100196.75;;;11.37;100.00
2549;BME280;1284;53.520;10.248;2023-04-15T06:26:34;100190.63;;;11.40;100.00
2549;BME280;1284;53.520;10.248;2023-04-15T06:28:59;100196.13;;;11.50;100.00
2549;BME280;1284;53.520;10.248;2023-04-15T06:31:25;100193.84;;;11.56;100.00
2549;BME280;1284;53.520;10.248;2023-04-15T06:33:51;100193.44;;;11.54;100.00
2549;BME280;1284;53.520;10.248;2023-04-15T06:36:16;100199.91;;;11.46;100.00
2549;BME280;1284;53.520;10.248;2023-04-15T06:38:42;100205.31;;;11.46;100.00
2549;BME280;1284;53.520;10.248;2023-04-15T06:41:07;100213.81;;;11.48;100.00
2549;BME280;1284;53.520;10.248;2023-04-15T06:43:33;100208.09;;;11.53;100.00
2549;BME280;1284;53.520;10.248;2023-04-15T06:45:58;100211.91;;;11.52;100.00
2549;BME280;1284;53.520;10.248;2023-04-15T06:48:24;100209.16;;;11.45;100.00
2549;BME280;1284;53.520;10.248;2023-04-15T06:50:50;100211.41;;;11.36;100.00
2549;BME280;1284;53.520;10.248;2023-04-15T06:53:16;100212.22;;;11.40;100.00
2549;BME280;1284;53.520;10.248;2023-04-15T06:55:41;100218.44;;;11.47;100.00
2549;BME280;1284;53.520;10.248;2023-04-15T07:00:52;100216.59;;;11.55;100.00
2549;BME280;1284;53.520;10.248;2023-04-15T07:03:18;100212.38;;;11.57;100.00
2549;BME280;1284;53.520;10.248;2023-04-15T07:05:43;100226.19;;;11.52;100.00
2549;BME280;1284;53.520;10.248;2023-04-15T07:08:09;100210.81;;;11.56;100.00
2549;BME280;1284;53.520;10.248;2023-04-15T07:10:35;100217.78;;;11.57;100.00
2549;BME280;1284;53.520;10.248;2023-04-15T07:13:01;100222.00;;;11.58;100.00
2549;BME280;1284;53.520;10.248;2023-04-15T07:15:26;100233.53;;;11.55;100.00
2549;BME280;1284;53.520;10.248;2023-04-15T07:17:52;100222.66;;;11.45;100.00
2549;BME280;1284;53.520;10.248;2023-04-15T07:20:18;100226.16;;;11.49;100.00
2549;BME280;1284;53.520;10.248;2023-04-15T07:22:43;100236.28;;;11.59;100.00
2549;BME280;1284;53.520;10.248;2023-04-15T07:25:09;100230.78;;;11.52;100.00
2549;BME280;1284;53.520;10.248;2023-04-15T07:27:34;100236.97;;;11.52;100.00
2549;BME280;1284;53.520;10.248;2023-04-15T07:30:01;100238.47;;;11.50;100.00
2549;BME280;1284;53.520;10.248;2023-04-15T07:32:26;100243.88;;;11.50;100.00
2549;BME280;1284;53.520;10.248;2023-04-15T07:34:52;100249.19;;;11.43;100.00
2549;BME280;1284;53.520;10.248;2023-04-15T07:37:17;100251.44;;;11.34;100.00
2549;BME280;1284;53.520;10.248;2023-04-15T07:39:43;100245.22;;;11.30;100.00
2549;BME280;1284;53.520;10.248;2023-04-15T07:42:09;100251.47;;;11.37;100.00
2549;BME280;1284;53.520;10.248;2023-04-15T07:44:34;100245.44;;;11.51;100.00
2549;BME280;1284;53.520;10.248;2023-04-15T07:47:01;100257.41;;;11.53;100.00
2549;BME280;1284;53.520;10.248;2023-04-15T07:49:27;100250.06;;;11.54;100.00
2549;BME280;1284;53.520;10.248;2023-04-15T07:54:18;100263.66;;;11.61;100.00
2549;BME280;1284;53.520;10.248;2023-04-15T07:56:43;100266.84;;;11.70;100.00
2549;BME280;1284;53.520;10.248;2023-04-15T07:59:09;100270.28;;;11.67;100.00
2549;BME280;1284;53.520;10.248;2023-04-15T08:01:35;100270.63;;;11.65;100.00
2549;BME280;1284;53.520;10.248;2023-04-15T08:04:00;100259.53;;;11.70;100.00
2549;BME280;1284;53.520;10.248;2023-04-15T08:06:26;100264.94;;;11.74;100.00
2549;BME280;1284;53.520;10.248;2023-04-15T08:08:52;100272.28;;;11.77;100.00
2549;BME280;1284;53.520;10.248;2023-04-15T08:11:19;100272.78;;;11.86;100.00
2549;BME280;1284;53.520;10.248;2023-04-15T08:13:45;100273.94;;;11.89;100.00
2549;BME280;1284;53.520;10.248;2023-04-15T08:16:22;100277.41;;;11.89;100.00
2549;BME280;1284;53.520;10.248;2023-04-15T08:18:52;100267.81;;;11.92;100.00
2549;BME280;1284;53.520;10.248;2023-04-15T08:21:19;100280.22;;;12.00;100.00
2549;BME280;1284;53.520;10.248;2023-04-15T08:23:46;100273.19;;;11.92;100.00
2549;BME280;1284;53.520;10.248;2023-04-15T08:26:12;100283.72;;;12.04;100.00
2549;BME280;1284;53.520;10.248;2023-04-15T08:28:40;100282.94;;;12.03;100.00
2549;BME280;1284;53.520;10.248;2023-04-15T08:31:05;100279.94;;;12.15;100.00
2549;BME280;1284;53.520;10.248;2023-04-15T08:33:31;100293.47;;;12.19;100.00
2549;BME280;1284;53.520;10.248;2023-04-15T08:35:57;100279.16;;;12.11;100.00
2549;BME280;1284;53.520;10.248;2023-04-15T08:38:22;100294.25;;;12.19;100.00
2549;BME280;1284;53.520;10.248;2023-04-15T08:40:48;100288.50;;;12.24;100.00
2549;BME280;1284;53.520;10.248;2023-04-15T08:43:26;100294.31;;;12.30;100.00
2549;BME280;1284;53.520;10.248;2023-04-15T08:45:54;100292.72;;;12.22;100.00
2549;BME280;1284;53.520;10.248;2023-04-15T08:48:20;100297.38;;;12.25;100.00
2549;BME280;1284;53.520;10.248;2023-04-15T08:50:47;100297.84;;;12.37;100.00
2549;BME280;1284;53.520;10.248;2023-04-15T08:53:13;100289.31;;;12.28;100.00
2549;BME280;1284;53.520;10.248;2023-04-15T08:55:42;100292.44;;;12.37;100.00
2549;BME280;1284;53.520;10.248;2023-04-15T08:58:12;100298.59;;;12.34;100.00
2549;BME280;1284;53.520;10.248;2023-04-15T09:00:41;100304.84;;;12.42;100.00
2549;BME280;1284;53.520;10.248;2023-04-15T09:03:07;100302.16;;;12.45;100.00
2549;BME280;1284;53.520;10.248;2023-04-15T09:05:34;100310.28;;;12.49;100.00
2549;BME280;1284;53.520;10.248;2023-04-15T09:08:00;100317.28;;;12.57;100.00
2549;BME280;1284;53.520;10.248;2023-04-15T09:10:26;100315.78;;;12.63;99.35
2549;BME280;1284;53.520;10.248;2023-04-15T09:12:52;100311.06;;;12.53;99.87
2549;BME280;1284;53.520;10.248;2023-04-15T09:15:18;100309.16;;;12.53;100.00
2549;BME280;1284;53.520;10.248;2023-04-15T09:17:43;100306.56;;;12.71;100.00
2549;BME280;1284;53.520;10.248;2023-04-15T09:20:11;100304.78;;;12.96;99.80
2549;BME280;1284;53.520;10.248;2023-04-15T09:22:38;100309.91;;;13.12;99.83
2549;BME280;1284;53.520;10.248;2023-04-15T09:25:24;100310.00;;;13.43;100.00
2549;BME280;1284;53.520;10.248;2023-04-15T09:27:57;100310.06;;;13.68;99.96
2549;BME280;1284;53.520;10.248;2023-04-15T09:30:23;100311.28;;;13.95;99.03
2549;BME280;1284;53.520;10.248;2023-04-15T09:32:54;100328.31;;;14.03;98.04
2549;BME280;1284;53.520;10.248;2023-04-15T09:35:21;100316.69;;;14.06;97.73
2549;BME280;1284;53.520;10.248;2023-04-15T09:37:50;100319.41;;;14.13;96.66
2549;BME280;1284;53.520;10.248;2023-04-15T09:42:58;100320.19;;;14.20;93.61
2549;BME280;1284;53.520;10.248;2023-04-15T09:45:24;100333.31;;;14.11;93.84
2549;BME280;1284;53.520;10.248;2023-04-15T09:47:50;100327.91;;;14.11;93.37
2549;BME280;1284;53.520;10.248;2023-04-15T09:50:18;100333.34;;;14.18;92.70
2549;BME280;1284;53.520;10.248;2023-04-15T09:52:43;100327.94;;;14.18;93.16
2549;BME280;1284;53.520;10.248;2023-04-15T09:55:10;100328.31;;;14.20;92.08
2549;BME280;1284;53.520;10.248;2023-04-15T09:57:37;100330.22;;;14.27;91.98
2549;BME280;1284;53.520;10.248;2023-04-15T10:00:07;100328.31;;;14.34;91.27
2549;BME280;1284;53.520;10.248;2023-04-15T10:02:36;100324.47;;;14.50;91.49
2549;BME280;1284;53.520;10.248;2023-04-15T10:05:02;100332.94;;;14.69;91.76
2549;BME280;1284;53.520;10.248;2023-04-15T10:07:28;100332.88;;;14.97;91.47
2549;BME280;1284;53.520;10.248;2023-04-15T10:09:54;100337.47;;;15.18;90.42
2549;BME280;1284;53.520;10.248;2023-04-15T10:12:21;100343.63;;;15.29;88.96
2549;BME280;1284;53.520;10.248;2023-04-15T10:14:54;100346.28;;;15.39;87.83
2549;BME280;1284;53.520;10.248;2023-04-15T10:17:21;100342.06;;;15.31;87.32
2549;BME280;1284;53.520;10.248;2023-04-15T10:19:48;100352.50;;;15.40;87.59
2549;BME280;1284;53.520;10.248;2023-04-15T10:22:14;100354.06;;;15.48;87.26
2549;BME280;1284;53.520;10.248;2023-04-15T10:24:40;100358.69;;;15.51;86.57
2549;BME280;1284;53.520;10.248;2023-04-15T10:27:05;100353.19;;;15.58;85.72
2549;BME280;1284;53.520;10.248;2023-04-15T10:29:31;100359.41;;;15.66;85.37
2549;BME280;1284;53.520;10.248;2023-04-15T10:32:00;100361.72;;;15.60;84.14
2549;BME280;1284;53.520;10.248;2023-04-15T10:34:26;100368.00;;;15.50;84.62
2549;BME280;1284;53.520;10.248;2023-04-15T10:36:55;100366.78;;;15.58;84.39
2549;BME280;1284;53.520;10.248;2023-04-15T10:39:41;100366.72;;;15.72;84.12
2549;BME280;1284;53.520;10.248;2023-04-15T10:42:12;100369.03;;;15.74;83.99
2549;BME280;1284;53.520;10.248;2023-04-15T10:44:41;100370.94;;;15.80;83.42
2549;BME280;1284;53.520;10.248;2023-04-15T10:47:12;100379.50;;;15.75;82.74
2549;BME280;1284;53.520;10.248;2023-04-15T10:49:51;100378.72;;;15.78;82.74
2549;BME280;1284;53.520;10.248;2023-04-15T10:52:22;100378.78;;;15.64;83.14
2549;BME280;1284;53.520;10.248;2023-04-15T10:54:47;100383.06;;;15.65;83.74
2549;BME280;1284;53.520;10.248;2023-04-15T10:57:21;100387.41;;;15.38;83.74
2549;BME280;1284;53.520;10.248;2023-04-15T11:05:15;100391.25;;;15.37;83.56
2549;BME280;1284;53.520;10.248;2023-04-15T11:07:50;100393.63;;;15.42;83.22
2549;BME280;1284;53.520;10.248;2023-04-15T11:12:46;100382.34;;;15.54;82.32
2549;BME280;1284;53.520;10.248;2023-04-15T11:15:33;100381.16;;;15.52;82.19
2549;BME280;1284;53.520;10.248;2023-04-15T11:18:21;100385.00;;;15.61;82.86
2549;BME280;1284;53.520;10.248;2023-04-15T11:20:52;100388.09;;;15.63;81.78
2549;BME280;1284;53.520;10.248;2023-04-15T11:26:04;100388.03;;;15.77;81.44
2549;BME280;1284;53.520;10.248;2023-04-15T11:28:32;100399.59;;;15.92;81.19
2549;BME280;1284;53.520;10.248;2023-04-15T11:30:57;100380.94;;;15.97;80.60
2549;BME280;1284;53.520;10.248;2023-04-15T11:33:23;100393.09;;;15.75;80.08
2549;BME280;1284;53.520;10.248;2023-04-15T11:35:51;100399.31;;;15.69;79.82
2549;BME280;1284;53.520;10.248;2023-04-15T11:38:17;100403.56;;;15.73;81.00
2549;BME280;1284;53.520;10.248;2023-04-15T11:40:44;100401.53;;;15.91;80.02
2549;BME280;1284;53.520;10.248;2023-04-15T11:43:13;100403.47;;;15.91;79.68
2549;BME280;1284;53.520;10.248;2023-04-15T11:45:51;100413.13;;;16.02;79.63
2549;BME280;1284;53.520;10.248;2023-04-15T11:48:17;100410.59;;;15.67;79.07
2549;BME280;1284;53.520;10.248;2023-04-15T11:50:43;100418.28;;;15.76;79.95
2549;BME280;1284;53.520;10.248;2023-04-15T11:53:10;100413.97;;;15.89;79.67
2549;BME280;1284;53.520;10.248;2023-04-15T11:55:44;100413.56;;;15.90;79.89
2549;BME280;1284;53.520;10.248;2023-04-15T11:58:19;100422.13;;;15.82;79.68
2549;BME280;1284;53.520;10.248;2023-04-15T12:00:53;100422.88;;;15.89;79.82
2549;BME280;1284;53.520;10.248;2023-04-15T12:11:40;100428.94;;;16.14;79.31
2549;BME280;1284;53.520;10.248;2023-04-15T12:14:07;100430.91;;;16.14;79.01
2549;BME280;1284;53.520;10.248;2023-04-15T12:16:35;100439.00;;;16.21;79.12
2549;BME280;1284;53.520;10.248;2023-04-15T12:19:05;100437.50;;;16.13;77.89
2549;BME280;1284;53.520;10.248;2023-04-15T12:21:33;100443.38;;;16.01;77.80
2549;BME280;1284;53.520;10.248;2023-04-15T12:24:02;100451.19;;;15.92;78.38
2549;BME280;1284;53.520;10.248;2023-04-15T12:26:33;100447.69;;;15.98;78.37
2549;BME280;1284;53.520;10.248;2023-04-15T12:29:06;100448.38;;;16.09;78.37
2549;BME280;1284;53.520;10.248;2023-04-15T12:31:36;100451.47;;;16.15;78.44
2549;BME280;1284;53.520;10.248;2023-04-15T12:34:02;100453.00;;;16.12;78.57
2549;BME280;1284;53.520;10.248;2023-04-15T12:36:29;100451.03;;;16.23;77.97
2549;BME280;1284;53.520;10.248;2023-04-15T12:38:57;100460.34;;;16.22;77.09
2549;BME280;1284;53.520;10.248;2023-04-15T12:41:23;100464.50;;;16.38;75.61
2549;BME280;1284;53.520;10.248;2023-04-15T12:43:49;100462.63;;;16.31;75.58
2549;BME280;1284;53.520;10.248;2023-04-15T12:46:14;100463.75;;;16.37;76.01
2549;BME280;1284;53.520;10.248;2023-04-15T12:48:40;100470.28;;;16.47;75.27
2549;BME280;1284;53.520;10.248;2023-04-15T12:51:05;100470.31;;;16.43;73.99
2549;BME280;1284;53.520;10.248;2023-04-15T12:53:31;100467.69;;;16.29;74.36
2549;BME280;1284;53.520;10.248;2023-04-15T12:55:56;100471.94;;;16.30;74.06
2549;BME280;1284;53.520;10.248;2023-04-15T12:58:22;100475.84;;;16.29;74.11
2549;BME280;1284;53.520;10.248;2023-04-15T13:00:47;100483.25;;;16.21;74.45
2549;BME280;1284;53.520;10.248;2023-04-15T13:03:14;100485.19;;;16.21;73.86
2549;BME280;1284;53.520;10.248;2023-04-15T13:05:39;100490.22;;;16.30;74.48
2549;BME280;1284;53.520;10.248;2023-04-15T13:08:05;100483.53;;;16.41;74.26
2549;BME280;1284;53.520;10.248;2023-04-15T13:10:31;100487.03;;;16.38;74.62
2549;BME280;1284;53.520;10.248;2023-04-15T13:12:57;100485.03;;;16.46;74.63
2549;BME280;1284;53.520;10.248;2023-04-15T13:15:22;100491.25;;;16.46;73.52
2549;BME280;1284;53.520;10.248;2023-04-15T13:17:48;100484.28;;;16.45;71.97
2549;BME280;1284;53.520;10.248;2023-04-15T13:20:14;100494.44;;;16.34;72.63
2549;BME280;1284;53.520;10.248;2023-04-15T13:22:40;100501.06;;;16.33;73.11
2549;BME280;1284;53.520;10.248;2023-04-15T13:25:06;100494.47;;;16.31;73.01
2549;BME280;1284;53.520;10.248;2023-04-15T13:27:31;100494.78;;;16.43;73.24